Time;durP1;ratioP1;P1;durP2;ratioP2;P2;SDS_P1;SDS_P2;PMS_P1;PMS_P2;Temp;Humidity;BMP_temperature;BMP_pressure;BME280_temperature;BME280_humidity;BME280_pressure;Samples;Min_cycle;Max_cycle;Signal;HPM_P1;HPM_P2
2021/08/01 00:00:06;;;;;;;4.93;2.35;;;;;;;30.60;52.83;100656.25;5102058;27;70356;-36
2021/08/01 00:02:40;;;;;;;2.65;1.10;;;;;;;30.63;53.22;100642.28;5103528;27;66045;-35
2021/08/01 00:05:12;;;;;;;2.40;1.20;;;;;;;30.73;52.73;100658.84;5103793;27;69415;-35
2021/08/01 00:08:02;;;;;;;3.40;1.27;;;;;;;30.58;53.48;100631.28;5106476;27;66201;-35
2021/08/01 00:10:33;;;;;;;7.30;1.38;;;;;;;30.89;53.38;100662.03;5105548;27;69242;-38
2021/08/01 00:13:03;;;;;;;6.05;1.75;;;;;;;31.02;54.61;100670.00;5106688;27;66003;-37
2021/08/01 00:15:33;;;;;;;2.38;1.30;;;;;;;31.10;54.86;100675.13;5104320;27;70465;-37
2021/08/01 00:18:03;;;;;;;2.80;1.55;;;;;;;31.15;55.14;100664.44;5098954;27;66339;-36
2021/08/01 00:20:34;;;;;;;8.55;1.65;;;;;;;31.26;55.67;100686.38;5100778;27;70337;-38
2021/08/01 00:23:04;;;;;;;3.97;1.15;;;;;;;31.30;55.47;100684.88;5103829;27;65479;-40
2021/08/01 00:25:34;;;;;;;1.55;0.95;;;;;;;31.33;55.46;100695.25;5103321;27;69673;-38
2021/08/01 00:28:04;;;;;;;4.57;0.90;;;;;;;31.37;55.01;100700.03;5100644;27;65386;-40
2021/08/01 00:30:35;;;;;;;3.35;1.27;;;;;;;31.42;55.11;100703.94;5101378;27;69552;-39
2021/08/01 00:33:05;;;;;;;2.75;1.05;;;;;;;31.47;55.20;100699.50;5121123;27;66119;-38
2021/08/01 00:35:35;;;;;;;3.10;0.85;;;;;;;31.52;55.40;100699.63;5101496;27;68104;-37
2021/08/01 00:38:07;;;;;;;1.60;0.73;;;;;;;31.25;55.26;100654.94;5100540;27;65623;-39
2021/08/01 00:40:38;;;;;;;3.22;2.00;;;;;;;31.56;56.10;100706.25;5107890;27;69108;-39
2021/08/01 00:43:08;;;;;;;7.20;2.72;;;;;;;31.54;57.17;100707.56;5103227;27;66502;-39
2021/08/01 00:45:39;;;;;;;3.75;2.70;;;;;;;31.64;57.18;100724.09;5113307;27;69071;-39
2021/08/01 00:48:12;;;;;;;22.85;2.72;;;;;;;31.70;57.45;100727.75;5102626;27;67077;-39
2021/08/01 00:50:45;;;;;;;16.08;2.90;;;;;;;31.68;58.41;100729.88;5109007;27;70407;-49
2021/08/01 00:53:17;;;;;;;8.55;3.20;;;;;;;31.72;58.93;100731.06;5104332;27;66152;-42
2021/08/01 00:55:49;;;;;;;10.70;3.85;;;;;;;31.74;60.26;100731.69;5108854;27;70053;-39
2021/08/01 00:58:20;;;;;;;12.35;4.00;;;;;;;31.77;60.35;100744.78;5111609;27;66568;-40
2021/08/01 01:01:05;;;;;;;9.60;4.70;;;;;;;31.77;59.11;100737.47;5112840;27;69547;-40
2021/08/01 01:03:39;;;;;;;9.98;4.30;;;;;;;31.84;60.12;100740.06;5109005;27;66688;-40
2021/08/01 01:07:02;;;;;;;12.00;4.22;;;;;;;31.82;61.71;100747.63;5111113;27;70203;-39
2021/08/01 01:10:02;;;;;;;8.40;3.67;;;;;;;31.71;61.62;100721.28;5078393;27;65917;-39
2021/08/01 01:12:55;;;;;;;8.88;3.55;;;;;;;31.81;61.10;100732.41;5106615;27;70334;-40
2021/08/01 01:15:30;;;;;;;6.15;3.80;;;;;;;31.56;60.02;100689.97;5113151;27;66691;-40
2021/08/01 01:18:04;;;;;;;7.75;4.22;;;;;;;31.97;59.73;100749.94;5109468;27;69895;-40
2021/08/01 01:21:04;;;;;;;11.75;4.15;;;;;;;31.93;61.12;100752.31;5107094;27;66065;-40
2021/08/01 01:23:41;;;;;;;6.15;3.88;;;;;;;31.99;60.51;100754.09;5111023;27;68766;-40
2021/08/01 01:26:49;;;;;;;3.88;3.33;;;;;;;32.02;60.21;100759.06;5109915;27;65620;-39
2021/08/01 01:29:39;;;;;;;6.53;3.20;;;;;;;32.03;60.36;100755.28;5110933;27;70474;-40
2021/08/01 01:32:15;;;;;;;8.75;3.03;;;;;;;31.96;59.97;100743.69;5110366;27;67087;-39
2021/08/01 01:35:02;;;;;;;4.40;2.70;;;;;;;32.04;61.21;100759.66;5103966;27;70060;-39
2021/08/01 01:37:37;;;;;;;2.83;2.08;;;;;;;32.01;58.92;100761.97;5095014;27;66295;-41
2021/08/01 01:40:18;;;;;;;4.10;1.50;;;;;;;31.88;56.60;100762.97;5110247;27;69229;-41
2021/08/01 01:43:05;;;;;;;5.68;1.48;;;;;;;31.75;55.85;100763.16;5089969;27;65134;-37
2021/08/01 01:45:40;;;;;;;4.10;1.33;;;;;;;31.51;54.63;100740.50;5108800;27;70132;-38
2021/08/01 01:48:12;;;;;;;3.15;1.08;;;;;;;31.45;53.13;100761.22;5106157;27;67050;-38
2021/08/01 01:50:45;;;;;;;2.38;1.17;;;;;;;31.33;52.33;100752.19;5100746;27;70072;-39
2021/08/01 01:53:16;;;;;;;2.03;0.90;;;;;;;31.22;51.50;100758.34;5110154;27;66383;-38
2021/08/01 01:55:48;;;;;;;9.52;1.27;;;;;;;31.11;50.48;100749.91;5107819;27;70457;-40
2021/08/01 01:58:21;;;;;;;2.58;0.90;;;;;;;31.04;50.36;100756.47;5114669;27;65478;-38
2021/08/01 02:00:51;;;;;;;10.27;1.00;;;;;;;31.00;51.62;100756.06;5112194;27;68691;-38
2021/08/01 02:03:23;;;;;;;3.37;0.93;;;;;;;30.85;50.41;100742.91;5114124;27;65964;-39
2021/08/01 02:06:18;;;;;;;1.63;0.98;;;;;;;30.68;49.78;100720.13;5104092;27;69520;-40
2021/08/01 02:09:48;;;;;;;4.30;1.00;;;;;;;30.59;48.51;100708.75;5114673;27;65829;-38
2021/08/01 02:12:39;;;;;;;2.67;0.90;;;;;;;30.21;48.05;100650.16;5115294;27;69664;-40
2021/08/01 02:15:18;;;;;;;2.35;0.93;;;;;;;30.11;48.08;100646.28;5112732;27;66058;-37
2021/08/01 02:18:01;;;;;;;2.85;0.88;;;;;;;30.54;48.04;100735.66;5132701;27;69787;-37
2021/08/01 02:20:46;;;;;;;2.30;1.48;;;;;;;30.49;51.79;100724.66;5110488;27;65397;-37
2021/08/01 02:23:23;;;;;;;2.17;1.20;;;;;;;30.43;50.56;100714.75;5086933;27;69150;-37
2021/08/01 02:25:56;;;;;;;2.20;1.08;;;;;;;30.25;49.54;100689.25;5101001;27;66052;-37
2021/08/01 02:28:29;;;;;;;1.73;0.93;;;;;;;30.41;48.93;100714.13;5108670;27;69322;-37
2021/08/01 02:31:01;;;;;;;0.88;0.77;;;;;;;30.43;48.61;100736.38;5111101;27;66655;-37
2021/08/01 02:33:35;;;;;;;2.30;1.00;;;;;;;30.15;47.68;100698.91;5114174;27;70419;-39
2021/08/01 02:36:19;;;;;;;4.18;0.82;;;;;;;30.38;48.14;100742.44;5111166;27;66205;-37
2021/08/01 02:38:57;;;;;;;2.42;0.77;;;;;;;30.43;46.83;100744.50;5115175;27;70772;-37
2021/08/01 02:41:36;;;;;;;1.05;0.63;;;;;;;30.37;45.75;100731.84;5114152;27;66174;-37
2021/08/01 02:44:28;;;;;;;1.25;0.50;;;;;;;30.02;45.61;100697.94;5112269;27;71032;-38
2021/08/01 02:47:00;;;;;;;1.25;0.68;;;;;;;30.28;45.64;100737.53;5105176;27;65767;-37
2021/08/01 02:49:39;;;;;;;1.08;0.43;;;;;;;30.34;44.78;100745.81;5105896;27;70561;-38
2021/08/01 02:52:24;;;;;;;0.90;0.50;;;;;;;30.08;45.11;100714.34;5109130;27;66372;-38
2021/08/01 02:54:57;;;;;;;5.60;0.80;;;;;;;30.28;46.50;100756.50;5115238;27;70738;-38
2021/08/01 02:57:30;;;;;;;;;;;;;;;30.05;45.67;100742.66;5115460;27;66603;-37
2021/08/01 03:00:04;;;;;;;3.17;0.98;;;;;;;30.17;46.97;100732.81;5110046;27;69929;-38
2021/08/01 03:02:38;;;;;;;12.02;1.08;;;;;;;30.30;47.68;100750.00;5109120;27;66063;-38
2021/08/01 03:05:11;;;;;;;22.35;1.70;;;;;;;30.25;48.95;100732.53;5116560;27;70198;-36
2021/08/01 03:07:45;;;;;;;22.17;1.80;;;;;;;30.04;49.98;100686.91;5079529;27;65710;-37
2021/08/01 03:10:19;;;;;;;14.00;1.92;;;;;;;30.05;49.02;100683.16;5095730;27;69913;-36
2021/08/01 03:12:51;;;;;;;14.07;1.30;;;;;;;30.15;48.00;100680.78;5111498;27;66507;-37
2021/08/01 03:15:24;;;;;;;14.98;1.30;;;;;;;30.41;48.06;100724.94;5115540;27;69375;-41
2021/08/01 03:17:55;;;;;;;9.10;1.50;;;;;;;30.36;48.24;100716.66;5099913;27;66385;-38
2021/08/01 03:20:25;;;;;;;11.88;1.52;;;;;;;30.39;48.70;100710.81;5110702;27;70137;-36
2021/08/01 03:23:15;;;;;;;8.90;1.98;;;;;;;30.41;48.63;100704.13;5113255;27;66243;-37
2021/08/01 03:26:03;;;;;;;7.00;1.60;;;;;;;30.39;47.82;100708.91;5110303;27;69386;-37
2021/08/01 03:28:35;;;;;;;13.82;1.85;;;;;;;30.39;47.46;100698.09;5115216;27;65968;-37
2021/08/01 03:31:08;;;;;;;5.80;1.75;;;;;;;30.41;47.37;100697.88;5110459;27;69906;-38
2021/08/01 03:33:43;;;;;;;12.88;2.08;;;;;;;30.40;47.85;100685.41;5113312;27;66566;-38
2021/08/01 03:36:15;;;;;;;16.13;2.17;;;;;;;30.38;47.77;100679.38;5096147;27;71301;-38
2021/08/01 03:39:05;;;;;;;12.57;1.95;;;;;;;30.40;46.90;100677.28;5109508;27;66518;-37
2021/08/01 03:41:39;;;;;;;9.45;3.25;;;;;;;30.42;51.15;100680.59;5113091;27;69164;-39
2021/08/01 03:44:14;;;;;;;16.05;4.70;;;;;;;30.43;51.33;100664.13;5114794;27;64603;-37
2021/08/01 03:46:44;;;;;;;12.30;4.53;;;;;;;30.49;55.26;100667.84;5109462;27;70075;-36
2021/08/01 03:49:14;;;;;;;9.57;4.50;;;;;;;30.56;54.17;100665.88;5113465;27;66007;-39
2021/08/01 03:51:44;;;;;;;12.88;4.43;;;;;;;30.62;52.92;100666.84;5114036;27;70045;-36
2021/08/01 03:54:15;;;;;;;9.63;4.10;;;;;;;30.65;51.79;100661.84;5115050;27;65916;-37
2021/08/01 03:56:46;;;;;;;10.13;3.70;;;;;;;30.66;51.04;100668.06;5112993;27;70140;-37
2021/08/01 03:59:17;;;;;;;19.70;4.40;;;;;;;30.70;50.04;100663.84;5098366;27;66145;-37
2021/08/01 04:01:47;;;;;;;7.88;3.92;;;;;;;30.60;48.53;100650.84;5114912;27;69743;-37
2021/08/01 04:04:18;;;;;;;11.25;3.92;;;;;;;30.65;47.92;100655.59;5110547;27;66435;-37
2021/08/01 04:06:49;;;;;;;12.17;3.67;;;;;;;30.59;48.23;100634.81;5078076;27;70925;-37
2021/08/01 04:09:19;;;;;;;5.70;3.40;;;;;;;30.63;47.04;100636.88;5115731;27;65898;-37
2021/08/01 04:11:52;;;;;;;5.32;3.67;;;;;;;30.64;46.67;100627.69;5110410;27;70029;-39
2021/08/01 04:14:24;;;;;;;12.48;3.55;;;;;;;30.63;46.26;100615.22;5091865;27;66281;-38
2021/08/01 04:16:55;;;;;;;5.80;3.72;;;;;;;30.61;46.13;100617.31;5114044;27;69388;-38
2021/08/01 04:19:40;;;;;;;9.23;3.30;;;;;;;30.58;44.97;100601.50;5110565;27;66602;-38
2021/08/01 04:22:15;;;;;;;5.90;3.08;;;;;;;30.57;45.13;100608.00;5110055;27;70034;-41
2021/08/01 04:24:53;;;;;;;10.82;3.75;;;;;;;30.54;44.88;100605.75;5106895;27;66861;-37
2021/08/01 04:27:24;;;;;;;6.20;3.30;;;;;;;30.51;44.65;100600.78;5114552;27;69310;-36
2021/08/01 04:29:54;;;;;;;7.13;2.50;;;;;;;30.41;43.32;100573.41;5110360;27;66264;-36
2021/08/01 04:32:25;;;;;;;10.13;3.13;;;;;;;30.56;44.60;100598.19;5114020;27;69462;-37
2021/08/01 04:34:55;;;;;;;6.53;2.90;;;;;;;30.57;48.31;100583.63;5115384;27;65948;-37
2021/08/01 04:37:26;;;;;;;5.45;3.13;;;;;;;30.63;48.15;100580.00;5114841;27;70478;-37
2021/08/01 04:39:59;;;;;;;4.55;2.90;;;;;;;30.69;47.37;100581.00;5114721;27;66231;-39
2021/08/01 04:42:31;;;;;;;10.35;2.45;;;;;;;30.68;47.95;100569.34;5118344;27;69859;-36
2021/08/01 04:45:02;;;;;;;6.40;2.38;;;;;;;30.64;46.95;100570.81;5111920;27;66419;-36
2021/08/01 04:47:32;;;;;;;8.88;2.58;;;;;;;30.67;47.26;100573.13;5112354;27;70295;-36
2021/08/01 04:50:03;;;;;;;8.65;2.45;;;;;;;30.70;48.23;100572.66;5111582;27;66410;-38
2021/08/01 04:52:33;;;;;;;9.18;3.15;;;;;;;30.73;48.39;100558.66;5111919;27;70110;-37
2021/08/01 04:55:04;;;;;;;19.95;2.67;;;;;;;30.70;47.99;100534.75;5109887;27;66410;-37
2021/08/01 04:57:41;;;;;;;11.13;2.50;;;;;;;30.63;46.72;100531.28;5114531;27;70487;-36
2021/08/01 05:00:13;;;;;;;6.63;3.03;;;;;;;30.71;45.79;100547.22;5115773;27;65564;-37
2021/08/01 05:02:44;;;;;;;7.45;2.45;;;;;;;30.54;45.20;100521.81;5119203;27;69769;-36
2021/08/01 05:05:20;;;;;;;12.00;2.60;;;;;;;30.65;45.38;100542.72;5111243;27;66472;-36
2021/08/01 05:07:50;;;;;;;11.45;2.85;;;;;;;30.65;44.92;100550.84;5118319;27;69209;-37
2021/08/01 05:10:21;;;;;;;30.58;3.72;;;;;;;30.67;45.23;100554.16;5108726;27;66551;-37
2021/08/01 05:12:51;;;;;;;49.22;5.18;;;;;;;30.65;45.27;100531.06;5110088;27;70356;-36
2021/08/01 05:15:23;;;;;;;28.45;4.25;;;;;;;30.64;44.93;100524.81;5118496;27;65417;-37
2021/08/01 05:17:53;;;;;;;49.25;4.20;;;;;;;30.63;45.07;100522.34;5116922;27;70502;-37
2021/08/01 05:20:23;;;;;;;45.67;4.38;;;;;;;30.64;44.49;100513.97;5111842;27;65733;-37
2021/08/01 05:22:54;;;;;;;40.33;4.72;;;;;;;30.61;44.28;100511.72;5115368;27;69464;-37
2021/08/01 05:25:26;;;;;;;31.50;4.13;;;;;;;30.53;45.16;100493.09;5114662;27;64961;-39
2021/08/01 05:27:56;;;;;;;34.00;4.25;;;;;;;30.67;45.98;100510.00;5098579;27;69765;-37
2021/08/01 05:30:27;;;;;;;35.55;3.90;;;;;;;30.68;44.89;100520.59;5116318;27;65718;-38
2021/08/01 05:32:57;;;;;;;32.45;4.15;;;;;;;30.65;44.44;100521.06;5117919;27;68688;-37
2021/08/01 05:35:27;;;;;;;30.88;3.78;;;;;;;30.67;44.77;100513.56;5114316;27;66310;-38
2021/08/01 05:37:58;;;;;;;37.22;3.67;;;;;;;30.67;43.84;100501.88;5097839;27;70172;-36
2021/08/01 05:40:32;;;;;;;14.48;2.97;;;;;;;30.61;43.44;100490.06;5107628;27;65896;-39
2021/08/01 05:43:03;;;;;;;12.40;2.90;;;;;;;30.56;42.95;100484.50;5114405;27;69333;-36
2021/08/01 05:45:34;;;;;;;28.73;3.40;;;;;;;30.56;43.24;100489.09;5113906;27;65893;-37
2021/08/01 05:48:05;;;;;;;30.23;3.25;;;;;;;30.53;43.00;100481.44;5118419;27;70547;-37
2021/08/01 05:50:39;;;;;;;20.30;2.95;;;;;;;30.50;43.07;100477.31;5115969;27;65260;-37
2021/08/01 05:53:09;;;;;;;13.90;3.67;;;;;;;30.49;42.80;100472.97;5119294;27;70214;-36
2021/08/01 05:55:40;;;;;;;10.73;3.38;;;;;;;30.50;42.71;100463.78;5115033;27;66134;-37
2021/08/01 05:58:12;;;;;;;5.63;2.87;;;;;;;30.52;41.35;100468.97;5118697;27;69291;-38
2021/08/01 06:00:43;;;;;;;8.52;2.67;;;;;;;30.54;42.13;100453.34;5114246;27;66156;-38
2021/08/01 06:03:13;;;;;;;9.93;2.90;;;;;;;30.46;41.15;100435.53;5110047;27;70524;-36
2021/08/01 06:05:44;;;;;;;9.13;2.75;;;;;;;30.46;41.21;100430.94;5117657;27;65297;-36
2021/08/01 06:08:15;;;;;;;7.45;2.88;;;;;;;30.48;40.77;100430.72;5120324;27;69635;-37
2021/08/01 06:10:46;;;;;;;6.47;2.83;;;;;;;30.53;40.86;100430.84;5115421;27;67325;-36
2021/08/01 06:13:17;;;;;;;6.38;2.75;;;;;;;30.47;40.74;100426.34;5117299;27;69594;-36
2021/08/01 06:15:48;;;;;;;8.38;3.00;;;;;;;30.51;40.87;100430.25;5115167;27;66510;-37
2021/08/01 06:18:22;;;;;;;5.18;2.45;;;;;;;30.53;40.69;100436.25;5094813;27;69267;-37
2021/08/01 06:21:16;;;;;;;13.68;2.75;;;;;;;30.23;40.07;100392.94;5116657;27;65494;-38
2021/08/01 06:23:51;;;;;;;5.15;2.83;;;;;;;30.55;40.34;100434.16;5116267;27;70243;-36
2021/08/01 06:26:23;;;;;;;3.75;2.83;;;;;;;30.53;40.39;100425.41;5119629;27;66195;-36
2021/08/01 06:28:53;;;;;;;6.00;2.80;;;;;;;30.57;40.85;100434.75;5115326;27;69877;-37
2021/08/01 06:31:23;;;;;;;3.63;2.88;;;;;;;30.59;40.50;100429.94;5112028;27;66739;-37
2021/08/01 06:33:58;;;;;;;4.75;2.92;;;;;;;30.58;40.46;100433.69;5119392;27;69895;-37
2021/08/01 06:36:28;;;;;;;4.82;3.03;;;;;;;30.63;40.90;100417.59;5113944;27;65981;-37
2021/08/01 06:38:58;;;;;;;5.00;3.22;;;;;;;30.68;41.29;100423.13;5107320;27;69646;-37
2021/08/01 06:41:30;;;;;;;3.95;2.60;;;;;;;30.65;40.92;100415.47;5099236;27;66032;-37
2021/08/01 06:44:01;;;;;;;6.35;3.08;;;;;;;30.71;40.63;100414.56;5117283;27;69293;-38
2021/08/01 06:46:31;;;;;;;2.72;2.53;;;;;;;30.61;40.71;100395.31;5110890;27;66772;-40
2021/08/01 06:49:10;;;;;;;4.20;2.92;;;;;;;30.70;40.51;100410.22;5106610;27;70460;-37
2021/08/01 06:51:40;;;;;;;3.30;2.90;;;;;;;30.75;40.88;100411.38;5116426;27;65608;-37
2021/08/01 06:54:11;;;;;;;4.68;3.13;;;;;;;30.77;41.50;100403.88;5111831;27;69811;-37
2021/08/01 06:56:41;;;;;;;6.28;3.40;;;;;;;30.78;41.04;100410.91;5114263;27;65749;-38
2021/08/01 06:59:13;;;;;;;4.05;3.38;;;;;;;30.79;40.28;100401.75;5116302;27;70231;-36
2021/08/01 07:01:46;;;;;;;3.35;3.05;;;;;;;30.76;40.22;100397.63;5094515;27;65868;-37
2021/08/01 07:04:17;;;;;;;4.28;3.85;;;;;;;30.79;40.40;100401.75;5113227;27;70954;-39
2021/08/01 07:06:50;;;;;;;3.72;3.20;;;;;;;30.79;40.28;100408.00;5107505;27;65206;-36
2021/08/01 07:09:22;;;;;;;;;;;;;;;30.55;40.58;100409.78;5114332;27;69007;-37
2021/08/01 07:11:54;;;;;;;5.70;3.47;;;;;;;30.83;40.39;100402.97;5096582;27;65584;-36
2021/08/01 07:14:27;;;;;;;5.93;3.28;;;;;;;30.74;40.35;100375.38;5105268;27;69351;-37
2021/08/01 07:16:58;;;;;;;6.88;3.50;;;;;;;30.92;42.06;100380.75;5095062;27;66116;-36
2021/08/01 07:19:29;;;;;;;4.07;3.78;;;;;;;30.99;41.87;100388.75;5114284;27;69275;-37
2021/08/01 07:21:59;;;;;;;4.70;4.22;;;;;;;31.01;42.44;100397.47;5113329;27;65502;-37
2021/08/01 07:24:32;;;;;;;4.32;3.67;;;;;;;31.01;41.84;100393.91;5110964;27;69812;-37
2021/08/01 07:27:03;;;;;;;4.60;3.63;;;;;;;31.00;41.01;100398.53;5078525;27;66812;-37
2021/08/01 07:29:34;;;;;;;6.28;4.07;;;;;;;31.00;40.74;100395.81;5117038;27;70029;-37
2021/08/01 07:32:04;;;;;;;11.68;4.55;;;;;;;31.04;41.59;100394.31;5097044;27;65432;-37
2021/08/01 07:34:35;;;;;;;12.03;4.43;;;;;;;31.03;40.89;100392.63;5115270;27;70376;-36
2021/08/01 07:37:06;;;;;;;10.07;4.15;;;;;;;30.99;40.93;100380.63;5114865;27;65386;-36
2021/08/01 07:39:37;;;;;;;28.58;4.20;;;;;;;31.04;41.52;100393.47;5109399;27;70328;-38
2021/08/01 07:42:08;;;;;;;19.67;4.00;;;;;;;31.04;41.41;100388.88;5111677;27;65648;-37
2021/08/01 07:45:22;;;;;;;11.30;4.50;;;;;;;30.94;40.76;100372.38;5078236;27;70661;-37
2021/08/01 07:47:37;;;;;;;11.65;4.15;;;;;;;31.05;40.81;100378.88;5105640;27;66092;-37
2021/08/01 07:50:08;;;;;;;6.30;4.63;;;;;;;31.03;40.36;100364.72;5111942;27;69320;-36
2021/08/01 07:52:38;;;;;;;10.30;4.38;;;;;;;31.07;40.46;100355.91;5106937;27;66721;-37
2021/08/01 07:55:14;;;;;;;5.50;4.23;;;;;;;31.09;40.90;100359.22;5076976;27;70681;-36
2021/08/01 07:57:47;;;;;;;6.90;4.93;;;;;;;31.08;39.94;100352.13;5114252;27;64598;-36
2021/08/01 08:00:18;;;;;;;14.02;4.75;;;;;;;31.11;40.17;100340.81;5112898;27;70314;-37
2021/08/01 08:02:48;;;;;;;8.50;4.70;;;;;;;31.12;40.56;100336.22;5111362;27;65981;-36
2021/08/01 08:05:19;;;;;;;6.13;4.10;;;;;;;31.17;40.79;100339.06;5109237;27;69744;-38
2021/08/01 08:07:49;;;;;;;4.68;4.28;;;;;;;31.21;40.20;100334.84;5114712;27;65817;-43
2021/08/01 08:10:19;;;;;;;4.55;4.15;;;;;;;31.24;40.37;100338.97;5114089;27;69965;-37
2021/08/01 08:12:50;;;;;;;6.28;4.55;;;;;;;31.25;40.40;100335.19;5113453;27;66580;-37
2021/08/01 08:15:22;;;;;;;8.93;4.65;;;;;;;31.25;40.14;100322.44;5112124;27;42995;-36
2021/08/01 08:17:52;;;;;;;10.18;5.40;;;;;;;31.32;43.01;100325.06;5106817;27;66269;-35
2021/08/01 08:20:23;;;;;;;12.98;5.18;;;;;;;31.36;42.87;100320.81;5112230;27;70151;-37
2021/08/01 08:22:53;;;;;;;15.82;5.88;;;;;;;31.35;42.40;100330.81;5116020;27;66346;-36
2021/08/01 08:25:23;;;;;;;9.32;4.85;;;;;;;31.29;41.64;100315.50;5111791;27;70333;-37
2021/08/01 08:27:57;;;;;;;17.55;6.32;;;;;;;31.39;41.98;100320.34;5110536;27;66390;-35
2021/08/01 08:30:27;;;;;;;12.95;5.72;;;;;;;31.43;42.26;100318.00;5114442;27;69302;-36
2021/08/01 08:33:00;;;;;;;18.38;6.28;;;;;;;31.42;42.50;100321.75;5110206;27;66950;-36
2021/08/01 08:35:30;;;;;;;11.30;6.18;;;;;;;31.42;42.13;100319.06;5113049;27;70137;-36
2021/08/01 08:38:01;;;;;;;142.63;116.63;;;;;;;31.55;45.88;100330.47;5111026;27;65175;-36
2021/08/01 08:40:37;;;;;;;1038.88;925.95;;;;;;;31.77;49.70;100340.69;5112771;27;70525;-36
2021/08/01 08:43:09;;;;;;;1371.28;999.90;;;;;;;31.95;48.66;100343.25;5112549;27;65790;-36
2021/08/01 08:45:45;;;;;;;1229.70;976.17;;;;;;;32.11;51.74;100332.72;5113750;27;69179;-35
2021/08/01 08:48:19;;;;;;;934.10;832.78;;;;;;;32.37;52.38;100342.16;5113044;27;65527;-36
2021/08/01 08:50:50;;;;;;;193.43;139.40;;;;;;;32.57;52.74;100341.72;5115967;27;69986;-36
2021/08/01 08:53:25;;;;;;;14.65;9.60;;;;;;;32.40;53.11;100282.78;5114970;27;65639;-35
2021/08/01 08:55:55;;;;;;;16.02;9.50;;;;;;;32.97;52.87;100346.22;5109465;27;69951;-37
2021/08/01 08:58:31;;;;;;;19.27;9.38;;;;;;;33.16;53.97;100344.91;5114477;27;65403;-35
2021/08/01 09:01:01;;;;;;;14.73;9.18;;;;;;;33.30;52.81;100340.78;5115954;27;69274;-37
2021/08/01 09:03:33;;;;;;;11.93;8.70;;;;;;;33.42;54.47;100348.00;5110488;27;66704;-36
2021/08/01 09:06:04;;;;;;;19.60;8.85;;;;;;;33.49;53.25;100354.06;5113928;27;69592;-36
2021/08/01 09:08:36;;;;;;;16.27;9.60;;;;;;;33.65;52.93;100358.66;5115648;27;66480;-36
2021/08/01 09:11:06;;;;;;;23.02;9.40;;;;;;;33.70;54.70;100358.75;5108855;27;69831;-37
2021/08/01 09:13:44;;;;;;;12.98;9.13;;;;;;;33.79;54.63;100364.56;5113418;27;65655;-35
2021/08/01 09:16:16;;;;;;;16.88;8.70;;;;;;;33.90;52.89;100366.34;5112156;27;69417;-36
2021/08/01 09:18:47;;;;;;;21.55;8.98;;;;;;;34.00;52.62;100361.03;5116970;27;66269;-36
2021/08/01 09:21:34;;;;;;;11.53;9.13;;;;;;;33.84;54.04;100345.59;5109308;27;69554;-36
2021/08/01 09:24:08;;;;;;;13.88;9.05;;;;;;;33.83;53.13;100324.09;5118025;27;66243;-35
2021/08/01 09:26:45;;;;;;;;;;;;;;;33.97;55.03;100377.06;5119173;27;69262;-36
2021/08/01 09:29:16;;;;;;;11.38;9.00;;;;;;;34.20;52.83;100375.97;5115071;27;66321;-36
2021/08/01 09:32:00;;;;;;;12.63;9.75;;;;;;;34.18;54.45;100357.16;5114304;27;70336;-36
2021/08/01 09:34:30;;;;;;;21.25;11.40;;;;;;;34.22;53.87;100344.69;5113069;27;66367;-37
2021/08/01 09:37:05;;;;;;;20.55;11.02;;;;;;;34.02;53.81;100319.97;5115844;27;69503;-37
2021/08/01 09:39:40;;;;;;;15.90;10.27;;;;;;;34.10;53.21;100321.41;5115728;27;66290;-38
2021/08/01 09:42:11;;;;;;;14.50;11.15;;;;;;;34.34;53.39;100360.06;5116905;27;69818;-37
2021/08/01 09:44:43;;;;;;;16.90;10.65;;;;;;;34.03;53.08;100313.44;5105038;27;66474;-36
2021/08/01 09:47:23;;;;;;;16.10;11.20;;;;;;;34.31;53.60;100366.03;5109319;27;69613;-36
2021/08/01 09:50:20;;;;;;;20.17;11.32;;;;;;;34.28;53.37;100374.72;5113221;27;66386;-36
2021/08/01 09:52:51;;;;;;;23.08;15.88;;;;;;;34.33;52.93;100378.31;5112442;27;70549;-37
2021/08/01 09:55:22;;;;;;;29.42;19.77;;;;;;;34.09;52.64;100364.16;5105371;27;65007;-36
2021/08/01 09:57:57;;;;;;;33.90;16.95;;;;;;;34.25;53.27;100436.75;5111462;27;70169;-37
2021/08/01 10:00:27;;;;;;;31.67;15.48;;;;;;;34.24;53.10;100437.84;5107851;27;65291;-37
2021/08/01 10:03:02;;;;;;;22.25;14.45;;;;;;;34.31;53.31;100464.84;5109805;27;70267;-36
2021/08/01 10:05:33;;;;;;;30.30;14.63;;;;;;;34.33;52.96;100462.72;5110834;27;66320;-37
2021/08/01 10:08:04;;;;;;;18.92;14.10;;;;;;;34.31;53.53;100458.59;5118381;27;69187;-36
2021/08/01 10:10:34;;;;;;;20.08;12.32;;;;;;;34.29;53.39;100453.38;5113831;27;66338;-36
2021/08/01 10:13:05;;;;;;;17.67;12.93;;;;;;;34.33;53.12;100456.44;5113213;27;70596;-37
2021/08/01 10:15:35;;;;;;;24.00;12.30;;;;;;;34.36;53.26;100458.66;5114913;27;65467;-36
2021/08/01 10:18:05;;;;;;;13.38;11.52;;;;;;;34.36;53.42;100477.72;5117299;27;70022;-37
2021/08/01 10:20:37;;;;;;;12.63;10.55;;;;;;;34.31;55.00;100470.31;5114744;27;66505;-37
2021/08/01 10:23:08;;;;;;;18.27;11.05;;;;;;;34.37;54.68;100482.06;5113768;27;70035;-39
2021/08/01 10:25:40;;;;;;;15.97;12.17;;;;;;;34.34;54.85;100479.88;5112384;27;65557;-37
2021/08/01 10:28:11;;;;;;;13.38;11.55;;;;;;;34.34;55.46;100472.50;5117798;27;69608;-37
2021/08/01 10:30:42;;;;;;;12.27;11.07;;;;;;;34.34;55.40;100480.69;5106533;27;65993;-42
2021/08/01 10:33:18;;;;;;;14.30;10.90;;;;;;;34.03;55.52;100420.38;5114132;27;69644;-38
2021/08/01 10:35:57;;;;;;;11.95;10.95;;;;;;;34.10;55.17;100447.47;5112610;27;65619;-38
2021/08/01 10:38:31;;;;;;;12.70;10.52;;;;;;;34.07;55.59;100439.78;5112989;27;70428;-36
2021/08/01 10:41:02;;;;;;;11.80;10.68;;;;;;;34.24;55.17;100465.06;5109577;27;65812;-37
2021/08/01 10:43:37;;;;;;;22.30;13.30;;;;;;;34.30;56.12;100476.00;5111554;27;69498;-37
2021/08/01 10:46:09;;;;;;;19.15;12.65;;;;;;;34.04;56.11;100437.53;5105640;27;66240;-37
2021/08/01 10:48:39;;;;;;;18.90;12.77;;;;;;;34.26;55.90;100473.78;5107947;27;70215;-37
2021/08/01 10:51:10;;;;;;;16.70;11.40;;;;;;;34.25;55.90;100471.31;5109308;27;65769;-45
2021/08/01 10:53:41;;;;;;;13.25;11.77;;;;;;;34.23;55.87;100468.84;5111889;27;70132;-38
2021/08/01 10:56:17;;;;;;;12.32;11.10;;;;;;;34.24;55.46;100470.50;5088182;27;65291;-37
2021/08/01 10:58:47;;;;;;;20.08;12.05;;;;;;;34.20;56.01;100463.91;5110749;27;70776;-37
2021/08/01 11:01:18;;;;;;;16.73;12.45;;;;;;;34.19;55.55;100451.38;5110078;27;65403;-37
2021/08/01 11:04:27;;;;;;;18.77;12.05;;;;;;;34.13;56.04;100446.97;5108659;27;69889;-37
2021/08/01 11:06:58;;;;;;;12.95;11.60;;;;;;;33.93;55.72;100411.25;5110762;27;64274;-36
2021/08/01 11:09:28;;;;;;;12.45;11.10;;;;;;;34.13;55.69;100446.97;5105685;27;70113;-37
2021/08/01 11:12:41;;;;;;;9.65;8.82;;;;;;;33.92;56.59;100445.81;5111418;27;66380;-37
2021/08/01 11:15:13;;;;;;;9.75;8.57;;;;;;;33.89;54.77;100450.94;5045866;28;69539;-37
2021/08/01 11:17:46;;;;;;;17.45;8.02;;;;;;;33.71;54.18;100463.78;5048992;28;66287;-40
2021/08/01 11:20:16;;;;;;;11.85;8.27;;;;;;;33.50;52.89;100464.50;5074547;27;69081;-36
2021/08/01 11:22:46;;;;;;;16.05;7.30;;;;;;;33.30;51.65;100465.81;5113993;27;66443;-39
2021/08/01 11:25:42;;;;;;;12.27;7.32;;;;;;;33.08;50.88;100463.00;5108829;27;69381;-40
2021/08/01 11:28:27;;;;;;;17.55;8.20;;;;;;;32.64;49.85;100429.31;5109110;27;65245;-38
2021/08/01 11:30:57;;;;;;;22.02;7.63;;;;;;;32.72;49.58;100475.09;5111767;27;69945;-38
2021/08/01 11:33:36;;;;;;;19.75;7.32;;;;;;;32.49;49.02;100465.97;5112690;27;66119;-44
2021/08/01 11:36:18;;;;;;;11.15;7.47;;;;;;;32.41;49.42;100479.06;5105580;27;70035;-37
2021/08/01 11:38:54;;;;;;;15.73;7.22;;;;;;;32.32;48.98;100470.47;5112047;27;66455;-36
2021/08/01 11:41:33;;;;;;;11.13;7.53;;;;;;;32.27;49.40;100478.50;5112200;27;70562;-36
2021/08/01 11:44:11;;;;;;;10.88;6.80;;;;;;;32.19;49.09;100482.41;5111588;27;66336;-38
2021/08/01 11:46:53;;;;;;;12.10;7.15;;;;;;;32.13;50.12;100487.97;5123426;27;70485;-38
2021/08/01 11:49:42;;;;;;;18.27;7.07;;;;;;;31.93;49.99;100491.88;5112744;27;66400;-37
2021/08/01 11:52:19;;;;;;;15.27;6.35;;;;;;;31.95;49.97;100503.31;5106248;27;69202;-38